createdAt,value
2023-01-02T00:04:41.662Z,4.63
2023-01-02T00:09:42.317Z,4.68
2023-01-02T00:14:42.992Z,6.47
2023-01-02T00:19:44.998Z,5.35
2023-01-02T00:24:45.638Z,5.80
2023-01-02T00:29:46.290Z,6.43
2023-01-02T00:34:48.448Z,5.80
2023-01-02T00:39:49.097Z,4.80
2023-01-02T00:44:50.390Z,5.28
2023-01-02T00:49:52.412Z,5.05
2023-01-02T00:54:53.080Z,4.65
2023-01-02T00:59:53.816Z,5.22
2023-01-02T01:04:55.877Z,4.55
2023-01-02T01:09:56.573Z,5.53
2023-01-02T01:14:57.267Z,4.88
2023-01-02T01:19:59.258Z,4.95
2023-01-02T01:24:59.975Z,4.25
2023-01-02T01:30:00.664Z,5.13
2023-01-02T01:35:02.666Z,4.70
2023-01-02T01:40:03.343Z,4.93
2023-01-02T01:45:04.818Z,5.20
2023-01-02T01:50:11.432Z,4.72
2023-01-02T01:55:17.429Z,5.05
2023-01-02T02:00:19.339Z,5.15
2023-01-02T02:05:27.139Z,4.70
2023-01-02T02:10:27.820Z,5.13
2023-01-02T02:15:38.395Z,5.38
2023-01-02T02:20:49.680Z,4.93
2023-01-02T02:26:12.371Z,4.95
2023-01-02T02:31:21.473Z,5.53
2023-01-02T02:36:31.254Z,5.07
2023-01-02T02:41:36.708Z,5.55
2023-01-02T02:46:50.001Z,5.18
2023-01-02T02:51:57.521Z,4.90
2023-01-02T02:57:00.620Z,4.85
2023-01-02T03:02:03.183Z,5.20
2023-01-02T03:07:17.526Z,5.32
2023-01-02T03:12:26.743Z,4.90
2023-01-02T03:17:34.804Z,4.80
2023-01-02T03:22:39.103Z,5.38
2023-01-02T03:27:44.839Z,5.03
2023-01-02T03:32:51.376Z,4.82
2023-01-02T03:37:57.491Z,5.18
2023-01-02T03:43:04.443Z,4.97
2023-01-02T03:48:15.499Z,4.93
2023-01-02T03:53:16.570Z,4.82
2023-01-02T03:58:25.238Z,4.93
2023-01-02T04:03:33.117Z,5.32
2023-01-02T04:08:38.910Z,4.63
2023-01-02T04:13:43.216Z,5.45
2023-01-02T04:18:49.511Z,4.80
2023-01-02T04:23:53.210Z,4.55
2023-01-02T04:28:54.206Z,4.97
2023-01-02T04:34:00.020Z,5.07
2023-01-02T04:39:00.680Z,5.40
2023-01-02T04:44:01.912Z,5.43
2023-01-02T04:49:04.036Z,5.85
2023-01-02T04:54:04.930Z,5.20
2023-01-02T04:59:05.630Z,5.45
2023-01-02T05:04:07.796Z,5.50
2023-01-02T05:09:08.566Z,5.53
2023-01-02T05:14:09.456Z,5.82
2023-01-02T05:19:11.450Z,5.65
2023-01-02T05:24:12.233Z,5.90
2023-01-02T05:29:12.894Z,5.65
2023-01-02T05:34:16.613Z,5.97
2023-01-02T05:39:17.259Z,5.70
2023-01-02T05:44:17.949Z,6.28
2023-01-02T05:49:19.943Z,6.30
2023-01-02T05:54:20.959Z,7.05
2023-01-02T05:59:21.633Z,5.93
2023-01-02T06:04:23.643Z,6.95
2023-01-02T06:09:24.376Z,6.53
2023-01-02T06:14:25.143Z,6.60
2023-01-02T06:19:27.146Z,6.88
2023-01-02T06:24:28.742Z,6.82
2023-01-02T06:29:29.582Z,8.23
2023-01-02T06:34:31.559Z,6.63
2023-01-02T06:39:32.224Z,7.15
2023-01-02T06:44:32.872Z,7.25
2023-01-02T06:49:34.906Z,7.78
2023-01-02T06:54:35.621Z,8.35
2023-01-02T06:59:36.273Z,8.10
2023-01-02T07:04:38.281Z,7.70
2023-01-02T07:09:38.969Z,8.82
2023-01-02T07:14:39.610Z,9.15
2023-01-02T07:19:41.683Z,9.23
2023-01-02T07:24:42.397Z,9.80
2023-01-02T07:29:43.053Z,8.65
2023-01-02T07:34:45.040Z,9.48
2023-01-02T07:39:46.729Z,9.27
2023-01-02T07:44:47.404Z,8.65
2023-01-02T07:49:49.415Z,8.90
2023-01-02T07:54:50.076Z,9.35
2023-01-02T07:59:50.952Z,8.02
2023-01-02T08:04:53.014Z,7.57
2023-01-02T08:09:53.867Z,8.15
2023-01-02T08:14:54.953Z,8.80
2023-01-02T08:20:00.355Z,7.85
2023-01-02T08:25:06.830Z,7.43
2023-01-02T08:30:08.691Z,9.07
2023-01-02T08:35:11.058Z,7.82
2023-01-02T08:40:12.929Z,8.18
2023-01-02T08:45:13.590Z,7.90
2023-01-02T08:50:15.804Z,7.85
2023-01-02T08:55:16.570Z,7.68
2023-01-02T09:00:17.940Z,7.30
2023-01-02T09:05:19.926Z,8.40
2023-01-02T09:10:20.732Z,7.30
2023-01-02T09:15:21.452Z,7.28
2023-01-02T09:20:23.574Z,6.97
2023-01-02T09:25:25.139Z,7.10
2023-01-02T09:30:27.879Z,7.68
2023-01-02T09:35:29.892Z,7.10
2023-01-02T09:40:30.882Z,7.20
2023-01-02T09:45:31.992Z,6.90
2023-01-02T09:50:34.007Z,6.95
2023-01-02T09:55:43.666Z,6.72
2023-01-02T10:00:47.460Z,6.20
2023-01-02T10:06:02.147Z,5.90
2023-01-02T10:11:16.294Z,6.93
2023-01-02T10:16:20.951Z,6.57
2023-01-02T10:21:27.500Z,6.50
2023-01-02T10:26:33.846Z,6.55
2023-01-02T10:31:57.976Z,6.50
2023-01-02T10:37:06.091Z,6.60
2023-01-02T10:42:13.371Z,6.68
2023-01-02T10:47:20.613Z,6.35
2023-01-02T10:52:28.470Z,6.28
2023-01-02T10:57:40.898Z,7.15
2023-01-02T11:02:42.314Z,6.35
2023-01-02T11:07:49.747Z,6.68
2023-01-02T11:12:50.601Z,6.07
2023-01-02T11:17:51.336Z,6.00
2023-01-02T11:22:56.493Z,6.45
2023-01-02T11:28:01.899Z,6.47
2023-01-02T11:33:07.718Z,6.32
2023-01-02T11:38:23.203Z,5.40
2023-01-02T11:43:53.078Z,5.90
2023-01-02T11:48:59.126Z,6.28
2023-01-02T11:54:05.465Z,6.43
2023-01-02T11:59:13.643Z,5.93
2023-01-02T12:04:15.529Z,6.15
2023-01-02T12:09:29.184Z,6.75
2023-01-02T12:14:54.206Z,5.65
2023-01-02T12:20:07.178Z,6.78
2023-01-02T12:25:28.171Z,5.82
2023-01-02T12:30:32.872Z,5.78
2023-01-02T12:35:52.821Z,6.13
2023-01-02T12:41:06.004Z,6.22
2023-01-02T12:46:18.370Z,6.00
2023-01-02T12:51:23.674Z,6.07
2023-01-02T12:56:34.243Z,6.07
2023-01-02T13:01:40.795Z,5.32
2023-01-02T13:06:50.091Z,5.53
2023-01-02T13:11:59.749Z,6.03
2023-01-02T13:17:22.093Z,5.25
2023-01-02T13:22:34.975Z,5.60
2023-01-02T13:27:38.314Z,5.13
2023-01-02T13:32:40.232Z,5.38
2023-01-02T13:37:43.822Z,5.25
2023-01-02T13:43:00.661Z,5.35
2023-01-02T13:48:05.069Z,6.20
2023-01-02T13:53:08.764Z,5.90
2023-01-02T13:58:42.040Z,6.00
2023-01-02T14:03:42.838Z,5.72
2023-01-02T14:09:11.394Z,6.15
2023-01-02T14:14:16.178Z,6.32
2023-01-02T14:19:23.416Z,6.00
2023-01-02T14:24:30.081Z,5.70
2023-01-02T14:29:40.750Z,6.15
2023-01-02T14:34:45.883Z,6.50
2023-01-02T14:39:46.717Z,5.65
2023-01-02T14:44:54.848Z,6.20
2023-01-02T14:50:00.378Z,5.97
2023-01-02T14:55:07.733Z,6.18
2023-01-02T15:00:22.815Z,6.55
2023-01-02T15:05:34.642Z,5.50
2023-01-02T15:10:55.505Z,6.22
2023-01-02T15:16:00.885Z,6.05
2023-01-02T15:21:08.069Z,5.63
2023-01-02T15:26:32.712Z,6.15
2023-01-02T15:31:40.097Z,6.30
2023-01-02T15:36:43.289Z,6.47
2023-01-02T15:41:47.135Z,6.47
2023-01-02T15:46:49.334Z,5.45
2023-01-02T15:51:50.549Z,5.82
2023-01-02T15:56:51.236Z,6.18
2023-01-02T16:01:53.780Z,5.80
2023-01-02T16:06:55.639Z,7.30
2023-01-02T16:11:58.509Z,6.55
2023-01-02T16:17:05.090Z,6.40
2023-01-02T16:22:14.685Z,6.55
2023-01-02T16:27:24.391Z,7.53
2023-01-02T16:32:29.202Z,7.68
2023-01-02T16:37:35.236Z,7.60
2023-01-02T16:42:38.957Z,7.13
2023-01-02T16:47:44.649Z,7.28
2023-01-02T16:52:45.873Z,7.55
2023-01-02T16:57:47.278Z,6.90
2023-01-02T17:02:50.573Z,7.85
2023-01-02T17:07:51.454Z,6.78
2023-01-02T17:12:52.183Z,4.00
2023-01-02T17:17:54.318Z,2.88
2023-01-02T17:22:55.354Z,2.05
2023-01-02T17:27:56.229Z,3.15
2023-01-02T17:33:03.799Z,2.35
2023-01-02T17:38:05.210Z,2.85
2023-01-02T17:43:06.210Z,2.50
2023-01-02T17:48:12.164Z,2.35
2023-01-02T17:53:14.178Z,2.60
2023-01-02T17:58:14.897Z,4.03
2023-01-02T18:03:16.919Z,5.03
2023-01-02T18:08:17.653Z,4.68
2023-01-02T18:13:18.423Z,5.35
2023-01-02T18:18:24.084Z,2.92
2023-01-02T18:23:26.637Z,2.33
2023-01-02T18:28:27.585Z,2.65
2023-01-02T18:33:30.751Z,2.63
2023-01-02T18:38:35.090Z,3.38
2023-01-02T18:43:36.918Z,2.10
2023-01-02T18:48:40.790Z,2.53
2023-01-02T18:53:47.243Z,2.33
2023-01-02T18:58:56.634Z,2.40
2023-01-02T19:04:27.187Z,2.42
2023-01-02T19:09:31.747Z,1.85
2023-01-02T19:14:39.509Z,2.33
2023-01-02T19:19:41.690Z,2.03
2023-01-02T19:24:42.532Z,2.20
2023-01-02T19:29:48.641Z,2.33
2023-01-02T19:34:51.847Z,2.03
2023-01-02T19:39:54.285Z,2.20
2023-01-02T19:44:56.736Z,1.98
2023-01-02T19:50:00.085Z,2.65
2023-01-02T19:55:00.842Z,2.40
2023-01-02T20:00:01.996Z,1.95
2023-01-02T20:05:20.737Z,1.70
2023-01-02T20:10:22.755Z,2.22
2023-01-02T20:15:25.255Z,2.08
2023-01-02T20:20:29.581Z,2.42
2023-01-02T20:25:30.293Z,2.20
2023-01-02T20:30:31.076Z,2.53
2023-01-02T20:35:33.159Z,2.95
2023-01-02T20:40:33.863Z,1.75
2023-01-02T20:45:35.964Z,1.17
2023-01-02T20:50:38.003Z,1.10
2023-01-02T20:55:40.174Z,0.93
2023-01-02T21:00:40.930Z,1.40
2023-01-02T21:05:42.985Z,1.17
2023-01-02T21:10:44.031Z,1.00
2023-01-02T21:15:46.947Z,1.40
2023-01-02T21:20:50.664Z,1.10
2023-01-02T21:25:51.888Z,1.25
2023-01-02T21:30:53.365Z,1.42
2023-01-02T21:35:57.319Z,1.38
2023-01-02T21:41:20.356Z,1.30
2023-01-02T21:46:21.163Z,1.05
2023-01-02T21:51:27.711Z,1.38
2023-01-02T21:56:32.237Z,1.55
2023-01-02T22:01:33.187Z,1.67
2023-01-02T22:06:36.736Z,1.35
2023-01-02T22:11:57.750Z,1.55
2023-01-02T22:17:02.106Z,1.50
2023-01-02T22:22:05.076Z,1.98
2023-01-02T22:27:07.641Z,1.85
2023-01-02T22:32:09.016Z,1.63
2023-01-02T22:37:11.281Z,1.70
2023-01-02T22:42:59.629Z,1.30
2023-01-02T22:47:59.407Z,1.38
2023-01-02T22:53:01.662Z,1.42
2023-01-02T22:58:02.311Z,1.60
2023-01-02T23:03:02.989Z,1.10
2023-01-02T23:08:05.552Z,1.33
2023-01-02T23:13:06.397Z,1.08
2023-01-02T23:18:24.791Z,1.23
2023-01-02T23:23:26.845Z,1.20
2023-01-02T23:29:04.438Z,1.38
2023-01-02T23:33:48.217Z,0.98
2023-01-02T23:38:51.763Z,0.90
2023-01-02T23:43:52.449Z,1.20
2023-01-02T23:48:53.196Z,0.90
2023-01-02T23:53:55.193Z,1.27
2023-01-02T23:58:57.191Z,1.10
